sensor_id;sensor_type;location;lat;lon;timestamp;P1;durP1;ratioP1;P2;durP2;ratioP2
55292;SDS011;41157;53.560;10.098;2023-07-13T00:01:04;5.07;;;2.20;;
55292;SDS011;41157;53.560;10.098;2023-07-13T00:03:32;2.72;;;1.88;;
55292;SDS011;41157;53.560;10.098;2023-07-13T00:06:01;4.28;;;2.00;;
55292;SDS011;41157;53.560;10.098;2023-07-13T00:08:29;6.85;;;2.20;;
55292;SDS011;41157;53.560;10.098;2023-07-13T00:10:57;3.85;;;2.25;;
55292;SDS011;41157;53.560;10.098;2023-07-13T00:13:24;3.85;;;2.03;;
55292;SDS011;41157;53.560;10.098;2023-07-13T00:15:51;3.33;;;2.40;;
55292;SDS011;41157;53.560;10.098;2023-07-13T00:18:19;5.65;;;2.58;;
55292;SDS011;41157;53.560;10.098;2023-07-13T00:20:46;6.95;;;2.10;;
55292;SDS011;41157;53.560;10.098;2023-07-13T00:23:14;5.60;;;2.30;;
55292;SDS011;41157;53.560;10.098;2023-07-13T00:25:42;5.82;;;2.03;;
55292;SDS011;41157;53.560;10.098;2023-07-13T00:28:09;4.05;;;2.40;;
55292;SDS011;41157;53.560;10.098;2023-07-13T00:30:36;6.63;;;2.03;;
55292;SDS011;41157;53.560;10.098;2023-07-13T00:33:03;3.60;;;1.83;;
55292;SDS011;41157;53.560;10.098;2023-07-13T00:35:30;4.53;;;1.92;;
55292;SDS011;41157;53.560;10.098;2023-07-13T00:37:58;5.13;;;2.13;;
55292;SDS011;41157;53.560;10.098;2023-07-13T00:40:26;6.70;;;2.10;;
55292;SDS011;41157;53.560;10.098;2023-07-13T00:42:53;3.42;;;2.08;;
55292;SDS011;41157;53.560;10.098;2023-07-13T00:48:09;5.32;;;2.28;;
55292;SDS011;41157;53.560;10.098;2023-07-13T00:50:36;3.88;;;2.08;;
55292;SDS011;41157;53.560;10.098;2023-07-13T00:53:04;3.50;;;1.85;;
55292;SDS011;41157;53.560;10.098;2023-07-13T00:55:32;3.60;;;1.90;;
55292;SDS011;41157;53.560;10.098;2023-07-13T00:57:59;3.17;;;2.03;;
55292;SDS011;41157;53.560;10.098;2023-07-13T01:00:27;4.60;;;2.13;;
55292;SDS011;41157;53.560;10.098;2023-07-13T01:02:56;3.28;;;2.13;;
55292;SDS011;41157;53.560;10.098;2023-07-13T01:05:23;3.47;;;1.95;;
55292;SDS011;41157;53.560;10.098;2023-07-13T01:07:51;5.43;;;2.40;;
55292;SDS011;41157;53.560;10.098;2023-07-13T01:10:20;5.72;;;2.30;;
55292;SDS011;41157;53.560;10.098;2023-07-13T01:12:49;4.28;;;2.22;;
55292;SDS011;41157;53.560;10.098;2023-07-13T01:15:33;4.60;;;2.38;;
55292;SDS011;41157;53.560;10.098;2023-07-13T01:18:01;6.13;;;2.67;;
55292;SDS011;41157;53.560;10.098;2023-07-13T01:20:29;3.70;;;2.30;;
55292;SDS011;41157;53.560;10.098;2023-07-13T01:22:57;7.30;;;2.22;;
55292;SDS011;41157;53.560;10.098;2023-07-13T01:25:25;4.57;;;2.20;;
55292;SDS011;41157;53.560;10.098;2023-07-13T01:27:52;7.03;;;2.20;;
55292;SDS011;41157;53.560;10.098;2023-07-13T01:30:19;4.53;;;2.40;;
55292;SDS011;41157;53.560;10.098;2023-07-13T01:32:46;3.58;;;2.55;;
55292;SDS011;41157;53.560;10.098;2023-07-13T01:35:13;5.17;;;1.97;;
55292;SDS011;41157;53.560;10.098;2023-07-13T01:37:41;3.47;;;2.35;;
55292;SDS011;41157;53.560;10.098;2023-07-13T01:40:11;3.42;;;2.47;;
55292;SDS011;41157;53.560;10.098;2023-07-13T01:42:39;5.10;;;2.58;;
55292;SDS011;41157;53.560;10.098;2023-07-13T01:45:06;3.00;;;2.20;;
55292;SDS011;41157;53.560;10.098;2023-07-13T01:47:33;6.60;;;2.45;;
55292;SDS011;41157;53.560;10.098;2023-07-13T01:50:00;7.17;;;2.77;;
55292;SDS011;41157;53.560;10.098;2023-07-13T01:52:27;7.05;;;3.13;;
55292;SDS011;41157;53.560;10.098;2023-07-13T01:54:54;4.25;;;2.58;;
55292;SDS011;41157;53.560;10.098;2023-07-13T01:57:23;8.68;;;3.17;;
55292;SDS011;41157;53.560;10.098;2023-07-13T01:59:50;8.03;;;3.00;;
55292;SDS011;41157;53.560;10.098;2023-07-13T02:02:17;4.53;;;3.10;;
55292;SDS011;41157;53.560;10.098;2023-07-13T02:04:44;6.77;;;2.67;;
55292;SDS011;41157;53.560;10.098;2023-07-13T02:07:11;3.30;;;2.83;;
55292;SDS011;41157;53.560;10.098;2023-07-13T02:09:38;10.40;;;2.90;;
55292;SDS011;41157;53.560;10.098;2023-07-13T02:12:05;5.93;;;2.75;;
55292;SDS011;41157;53.560;10.098;2023-07-13T02:14:34;6.67;;;2.93;;
55292;SDS011;41157;53.560;10.098;2023-07-13T02:17:00;6.87;;;2.93;;
55292;SDS011;41157;53.560;10.098;2023-07-13T02:19:28;6.20;;;3.40;;
55292;SDS011;41157;53.560;10.098;2023-07-13T02:21:55;6.37;;;3.17;;
55292;SDS011;41157;53.560;10.098;2023-07-13T02:24:22;6.80;;;3.13;;
55292;SDS011;41157;53.560;10.098;2023-07-13T02:26:49;4.53;;;3.70;;
55292;SDS011;41157;53.560;10.098;2023-07-13T02:29:16;6.27;;;3.07;;
55292;SDS011;41157;53.560;10.098;2023-07-13T02:31:45;6.47;;;2.80;;
55292;SDS011;41157;53.560;10.098;2023-07-13T02:34:12;4.80;;;3.00;;
55292;SDS011;41157;53.560;10.098;2023-07-13T02:36:39;3.40;;;3.10;;
55292;SDS011;41157;53.560;10.098;2023-07-13T02:39:06;6.13;;;3.53;;
55292;SDS011;41157;53.560;10.098;2023-07-13T02:41:33;5.97;;;3.70;;
55292;SDS011;41157;53.560;10.098;2023-07-13T02:44:01;7.00;;;3.30;;
55292;SDS011;41157;53.560;10.098;2023-07-13T02:46:29;5.93;;;3.40;;
55292;SDS011;41157;53.560;10.098;2023-07-13T02:48:57;5.13;;;3.47;;
55292;SDS011;41157;53.560;10.098;2023-07-13T02:51:24;8.43;;;3.63;;
55292;SDS011;41157;53.560;10.098;2023-07-13T02:53:51;5.67;;;3.23;;
55292;SDS011;41157;53.560;10.098;2023-07-13T02:56:19;6.20;;;3.40;;
55292;SDS011;41157;53.560;10.098;2023-07-13T02:58:46;6.63;;;3.97;;
55292;SDS011;41157;53.560;10.098;2023-07-13T03:01:13;5.13;;;3.53;;
55292;SDS011;41157;53.560;10.098;2023-07-13T03:03:44;7.50;;;3.40;;
55292;SDS011;41157;53.560;10.098;2023-07-13T03:06:13;4.07;;;3.07;;
55292;SDS011;41157;53.560;10.098;2023-07-13T03:08:40;6.10;;;3.30;;
55292;SDS011;41157;53.560;10.098;2023-07-13T03:11:07;6.63;;;3.20;;
55292;SDS011;41157;53.560;10.098;2023-07-13T03:13:36;4.80;;;3.40;;
55292;SDS011;41157;53.560;10.098;2023-07-13T03:16:03;4.90;;;3.20;;
55292;SDS011;41157;53.560;10.098;2023-07-13T03:18:30;5.77;;;3.67;;
55292;SDS011;41157;53.560;10.098;2023-07-13T03:20:57;4.67;;;3.70;;
55292;SDS011;41157;53.560;10.098;2023-07-13T03:23:26;6.53;;;4.17;;
55292;SDS011;41157;53.560;10.098;2023-07-13T03:26:00;10.37;;;3.60;;
55292;SDS011;41157;53.560;10.098;2023-07-13T03:28:27;4.73;;;3.27;;
55292;SDS011;41157;53.560;10.098;2023-07-13T03:30:58;5.80;;;3.60;;
55292;SDS011;41157;53.560;10.098;2023-07-13T03:33:25;6.07;;;3.50;;
55292;SDS011;41157;53.560;10.098;2023-07-13T03:35:52;10.03;;;3.53;;
55292;SDS011;41157;53.560;10.098;2023-07-13T03:38:19;4.47;;;3.30;;
55292;SDS011;41157;53.560;10.098;2023-07-13T03:40:48;6.77;;;3.70;;
55292;SDS011;41157;53.560;10.098;2023-07-13T03:43:15;10.30;;;4.10;;
55292;SDS011;41157;53.560;10.098;2023-07-13T03:45:42;6.83;;;3.87;;
55292;SDS011;41157;53.560;10.098;2023-07-13T03:48:09;5.93;;;3.50;;
55292;SDS011;41157;53.560;10.098;2023-07-13T03:50:36;5.73;;;3.53;;
55292;SDS011;41157;53.560;10.098;2023-07-13T03:53:03;3.60;;;3.30;;
55292;SDS011;41157;53.560;10.098;2023-07-13T03:55:30;3.90;;;3.50;;
55292;SDS011;41157;53.560;10.098;2023-07-13T03:58:00;11.13;;;3.77;;
55292;SDS011;41157;53.560;10.098;2023-07-13T04:00:27;4.70;;;3.33;;
55292;SDS011;41157;53.560;10.098;2023-07-13T04:02:54;6.17;;;3.30;;
55292;SDS011;41157;53.560;10.098;2023-07-13T04:05:21;7.03;;;3.53;;
55292;SDS011;41157;53.560;10.098;2023-07-13T04:07:48;6.20;;;3.40;;
55292;SDS011;41157;53.560;10.098;2023-07-13T04:10:15;7.27;;;3.20;;
55292;SDS011;41157;53.560;10.098;2023-07-13T04:12:42;6.30;;;3.50;;
55292;SDS011;41157;53.560;10.098;2023-07-13T04:15:11;9.07;;;3.43;;
55292;SDS011;41157;53.560;10.098;2023-07-13T04:17:38;5.03;;;3.50;;
55292;SDS011;41157;53.560;10.098;2023-07-13T04:20:05;9.40;;;3.37;;
55292;SDS011;41157;53.560;10.098;2023-07-13T04:22:32;8.07;;;3.37;;
55292;SDS011;41157;53.560;10.098;2023-07-13T04:24:59;9.20;;;3.17;;
55292;SDS011;41157;53.560;10.098;2023-07-13T04:27:26;6.27;;;3.13;;
55292;SDS011;41157;53.560;10.098;2023-07-13T04:29:54;6.90;;;3.70;;
55292;SDS011;41157;53.560;10.098;2023-07-13T04:32:22;8.47;;;3.60;;
55292;SDS011;41157;53.560;10.098;2023-07-13T04:34:50;6.53;;;3.60;;
55292;SDS011;41157;53.560;10.098;2023-07-13T04:37:19;9.40;;;3.60;;
55292;SDS011;41157;53.560;10.098;2023-07-13T04:39:46;7.90;;;3.40;;
55292;SDS011;41157;53.560;10.098;2023-07-13T04:42:13;6.97;;;3.20;;
55292;SDS011;41157;53.560;10.098;2023-07-13T04:44:40;9.03;;;3.30;;
55292;SDS011;41157;53.560;10.098;2023-07-13T04:47:07;7.17;;;3.47;;
55292;SDS011;41157;53.560;10.098;2023-07-13T04:49:36;9.60;;;3.50;;
55292;SDS011;41157;53.560;10.098;2023-07-13T04:52:03;5.10;;;3.07;;
55292;SDS011;41157;53.560;10.098;2023-07-13T04:54:31;11.50;;;3.50;;
55292;SDS011;41157;53.560;10.098;2023-07-13T04:56:58;7.70;;;3.63;;
55292;SDS011;41157;53.560;10.098;2023-07-13T04:59:26;13.10;;;3.60;;
55292;SDS011;41157;53.560;10.098;2023-07-13T05:01:53;5.83;;;3.10;;
55292;SDS011;41157;53.560;10.098;2023-07-13T05:04:20;11.03;;;3.83;;
55292;SDS011;41157;53.560;10.098;2023-07-13T05:06:49;13.33;;;3.90;;
55292;SDS011;41157;53.560;10.098;2023-07-13T05:09:16;8.27;;;3.17;;
55292;SDS011;41157;53.560;10.098;2023-07-13T05:11:43;8.40;;;3.47;;
55292;SDS011;41157;53.560;10.098;2023-07-13T05:14:10;7.73;;;3.40;;
55292;SDS011;41157;53.560;10.098;2023-07-13T05:16:37;9.00;;;3.23;;
55292;SDS011;41157;53.560;10.098;2023-07-13T05:19:04;9.87;;;3.60;;
55292;SDS011;41157;53.560;10.098;2023-07-13T05:21:31;7.87;;;3.20;;
55292;SDS011;41157;53.560;10.098;2023-07-13T05:23:59;6.33;;;2.73;;
55292;SDS011;41157;53.560;10.098;2023-07-13T05:26:26;11.33;;;2.83;;
55292;SDS011;41157;53.560;10.098;2023-07-13T05:28:53;7.27;;;3.10;;
55292;SDS011;41157;53.560;10.098;2023-07-13T05:31:20;8.93;;;2.63;;
55292;SDS011;41157;53.560;10.098;2023-07-13T05:33:47;7.90;;;2.60;;
55292;SDS011;41157;53.560;10.098;2023-07-13T05:36:14;6.27;;;3.53;;
55292;SDS011;41157;53.560;10.098;2023-07-13T05:38:41;5.53;;;2.50;;
55292;SDS011;41157;53.560;10.098;2023-07-13T05:41:10;6.30;;;2.67;;
55292;SDS011;41157;53.560;10.098;2023-07-13T05:43:37;15.18;;;3.08;;
55292;SDS011;41157;53.560;10.098;2023-07-13T05:46:04;5.88;;;2.97;;
55292;SDS011;41157;53.560;10.098;2023-07-13T05:48:31;11.40;;;3.28;;
55292;SDS011;41157;53.560;10.098;2023-07-13T05:50:58;16.27;;;2.95;;
55292;SDS011;41157;53.560;10.098;2023-07-13T05:53:25;17.35;;;2.97;;
55292;SDS011;41157;53.560;10.098;2023-07-13T05:55:53;8.52;;;3.45;;
55292;SDS011;41157;53.560;10.098;2023-07-13T05:58:22;11.63;;;2.72;;
55292;SDS011;41157;53.560;10.098;2023-07-13T06:00:57;8.90;;;2.97;;
55292;SDS011;41157;53.560;10.098;2023-07-13T06:03:25;11.07;;;3.35;;
55292;SDS011;41157;53.560;10.098;2023-07-13T06:05:52;9.38;;;2.85;;
55292;SDS011;41157;53.560;10.098;2023-07-13T06:08:19;11.00;;;2.70;;
55292;SDS011;41157;53.560;10.098;2023-07-13T06:10:46;13.77;;;3.20;;
55292;SDS011;41157;53.560;10.098;2023-07-13T06:13:13;9.20;;;3.15;;
55292;SDS011;41157;53.560;10.098;2023-07-13T06:15:41;12.32;;;3.20;;
55292;SDS011;41157;53.560;10.098;2023-07-13T06:18:08;7.25;;;2.88;;
55292;SDS011;41157;53.560;10.098;2023-07-13T06:20:35;10.43;;;2.80;;
55292;SDS011;41157;53.560;10.098;2023-07-13T06:23:02;15.73;;;3.10;;
55292;SDS011;41157;53.560;10.098;2023-07-13T06:25:29;12.50;;;3.10;;
55292;SDS011;41157;53.560;10.098;2023-07-13T06:27:56;9.02;;;3.00;;
55292;SDS011;41157;53.560;10.098;2023-07-13T06:30:23;9.25;;;2.78;;
55292;SDS011;41157;53.560;10.098;2023-07-13T06:32:51;9.20;;;2.50;;
55292;SDS011;41157;53.560;10.098;2023-07-13T06:35:19;5.03;;;2.72;;
55292;SDS011;41157;53.560;10.098;2023-07-13T06:37:46;8.13;;;2.90;;
55292;SDS011;41157;53.560;10.098;2023-07-13T06:40:13;9.38;;;2.88;;
55292;SDS011;41157;53.560;10.098;2023-07-13T06:42:40;11.50;;;2.90;;
55292;SDS011;41157;53.560;10.098;2023-07-13T06:45:07;7.90;;;2.92;;
55292;SDS011;41157;53.560;10.098;2023-07-13T06:47:34;15.30;;;2.90;;
55292;SDS011;41157;53.560;10.098;2023-07-13T06:50:03;10.65;;;2.67;;
55292;SDS011;41157;53.560;10.098;2023-07-13T06:52:30;12.57;;;3.00;;
55292;SDS011;41157;53.560;10.098;2023-07-13T06:54:57;9.15;;;2.38;;
55292;SDS011;41157;53.560;10.098;2023-07-13T06:57:24;12.13;;;2.38;;
55292;SDS011;41157;53.560;10.098;2023-07-13T06:59:51;9.43;;;2.70;;
55292;SDS011;41157;53.560;10.098;2023-07-13T07:02:18;10.23;;;2.67;;
55292;SDS011;41157;53.560;10.098;2023-07-13T07:04:45;12.18;;;3.13;;
55292;SDS011;41157;53.560;10.098;2023-07-13T07:07:13;8.35;;;3.17;;
55292;SDS011;41157;53.560;10.098;2023-07-13T07:09:40;12.43;;;2.88;;
55292;SDS011;41157;53.560;10.098;2023-07-13T07:12:08;10.80;;;2.80;;
55292;SDS011;41157;53.560;10.098;2023-07-13T07:14:35;8.27;;;2.70;;
55292;SDS011;41157;53.560;10.098;2023-07-13T07:17:02;6.85;;;2.88;;
55292;SDS011;41157;53.560;10.098;2023-07-13T07:19:29;7.72;;;2.65;;
55292;SDS011;41157;53.560;10.098;2023-07-13T07:21:56;6.15;;;2.25;;
55292;SDS011;41157;53.560;10.098;2023-07-13T07:24:24;6.57;;;2.85;;
55292;SDS011;41157;53.560;10.098;2023-07-13T07:26:52;23.20;;;4.68;;
55292;SDS011;41157;53.560;10.098;2023-07-13T07:29:19;7.50;;;2.08;;
55292;SDS011;41157;53.560;10.098;2023-07-13T07:31:46;10.35;;;3.28;;
55292;SDS011;41157;53.560;10.098;2023-07-13T07:34:13;7.78;;;2.63;;
55292;SDS011;41157;53.560;10.098;2023-07-13T07:36:39;8.23;;;2.30;;
55292;SDS011;41157;53.560;10.098;2023-07-13T07:39:06;7.25;;;2.60;;
55292;SDS011;41157;53.560;10.098;2023-07-13T07:41:35;9.30;;;3.22;;
55292;SDS011;41157;53.560;10.098;2023-07-13T07:44:02;8.07;;;2.20;;
55292;SDS011;41157;53.560;10.098;2023-07-13T07:46:29;7.80;;;2.85;;
55292;SDS011;41157;53.560;10.098;2023-07-13T07:48:56;10.00;;;2.40;;
55292;SDS011;41157;53.560;10.098;2023-07-13T07:51:23;13.20;;;2.67;;
55292;SDS011;41157;53.560;10.098;2023-07-13T07:53:50;4.80;;;2.00;;
55292;SDS011;41157;53.560;10.098;2023-07-13T07:56:17;7.53;;;2.50;;
55292;SDS011;41157;53.560;10.098;2023-07-13T07:58:45;4.97;;;2.00;;
55292;SDS011;41157;53.560;10.098;2023-07-13T08:01:12;5.53;;;2.28;;
55292;SDS011;41157;53.560;10.098;2023-07-13T08:03:41;12.07;;;3.28;;
55292;SDS011;41157;53.560;10.098;2023-07-13T08:06:08;7.00;;;2.40;;
55292;SDS011;41157;53.560;10.098;2023-07-13T08:08:35;6.70;;;2.38;;
55292;SDS011;41157;53.560;10.098;2023-07-13T08:11:02;5.32;;;1.83;;
55292;SDS011;41157;53.560;10.098;2023-07-13T08:13:29;16.48;;;3.22;;
55292;SDS011;41157;53.560;10.098;2023-07-13T08:15:58;6.85;;;2.25;;
55292;SDS011;41157;53.560;10.098;2023-07-13T08:18:25;11.20;;;2.58;;
55292;SDS011;41157;53.560;10.098;2023-07-13T08:20:53;8.10;;;2.33;;
55292;SDS011;41157;53.560;10.098;2023-07-13T08:23:21;6.20;;;2.42;;
55292;SDS011;41157;53.560;10.098;2023-07-13T08:25:50;5.78;;;2.22;;
55292;SDS011;41157;53.560;10.098;2023-07-13T08:28:17;12.38;;;2.78;;
55292;SDS011;41157;53.560;10.098;2023-07-13T08:30:44;6.50;;;2.30;;
55292;SDS011;41157;53.560;10.098;2023-07-13T08:33:15;10.05;;;2.30;;
55292;SDS011;41157;53.560;10.098;2023-07-13T08:35:42;6.18;;;2.00;;
55292;SDS011;41157;53.560;10.098;2023-07-13T08:38:12;6.38;;;2.25;;
55292;SDS011;41157;53.560;10.098;2023-07-13T08:40:42;8.82;;;2.08;;
55292;SDS011;41157;53.560;10.098;2023-07-13T08:43:11;6.75;;;1.85;;
55292;SDS011;41157;53.560;10.098;2023-07-13T08:45:42;8.82;;;2.03;;
55292;SDS011;41157;53.560;10.098;2023-07-13T08:48:10;9.55;;;2.00;;
55292;SDS011;41157;53.560;10.098;2023-07-13T08:50:42;7.50;;;1.80;;
55292;SDS011;41157;53.560;10.098;2023-07-13T08:53:13;9.00;;;2.30;;
55292;SDS011;41157;53.560;10.098;2023-07-13T08:55:41;8.00;;;2.20;;
55292;SDS011;41157;53.560;10.098;2023-07-13T08:58:10;5.78;;;2.58;;
55292;SDS011;41157;53.560;10.098;2023-07-13T09:00:39;5.32;;;2.10;;
55292;SDS011;41157;53.560;10.098;2023-07-13T09:03:12;5.05;;;1.90;;
55292;SDS011;41157;53.560;10.098;2023-07-13T09:05:41;6.45;;;2.53;;
55292;SDS011;41157;53.560;10.098;2023-07-13T09:08:26;5.15;;;2.10;;
55292;SDS011;41157;53.560;10.098;2023-07-13T09:10:59;8.48;;;2.00;;
55292;SDS011;41157;53.560;10.098;2023-07-13T09:13:28;4.80;;;1.88;;
55292;SDS011;41157;53.560;10.098;2023-07-13T09:15:59;6.65;;;2.38;;
55292;SDS011;41157;53.560;10.098;2023-07-13T09:18:31;6.05;;;2.03;;
55292;SDS011;41157;53.560;10.098;2023-07-13T09:21:02;6.03;;;1.77;;
55292;SDS011;41157;53.560;10.098;2023-07-13T09:23:30;4.28;;;1.70;;
55292;SDS011;41157;53.560;10.098;2023-07-13T09:25:59;10.43;;;2.42;;
55292;SDS011;41157;53.560;10.098;2023-07-13T09:28:27;4.35;;;1.70;;
55292;SDS011;41157;53.560;10.098;2023-07-13T09:30:58;16.58;;;2.97;;
55292;SDS011;41157;53.560;10.098;2023-07-13T09:33:28;10.73;;;1.88;;
55292;SDS011;41157;53.560;10.098;2023-07-13T09:35:56;5.35;;;2.00;;
55292;SDS011;41157;53.560;10.098;2023-07-13T09:38:25;8.23;;;1.98;;
55292;SDS011;41157;53.560;10.098;2023-07-13T09:40:59;4.40;;;2.30;;
55292;SDS011;41157;53.560;10.098;2023-07-13T09:43:27;6.35;;;1.85;;
55292;SDS011;41157;53.560;10.098;2023-07-13T09:45:54;3.63;;;1.67;;
55292;SDS011;41157;53.560;10.098;2023-07-13T09:48:21;7.88;;;2.60;;
55292;SDS011;41157;53.560;10.098;2023-07-13T09:50:49;4.20;;;2.03;;
55292;SDS011;41157;53.560;10.098;2023-07-13T09:53:20;4.03;;;1.95;;
55292;SDS011;41157;53.560;10.098;2023-07-13T09:55:49;5.53;;;1.90;;
55292;SDS011;41157;53.560;10.098;2023-07-13T09:58:17;6.45;;;2.33;;
55292;SDS011;41157;53.560;10.098;2023-07-13T10:00:54;3.78;;;2.08;;
55292;SDS011;41157;53.560;10.098;2023-07-13T10:03:23;4.72;;;2.08;;
55292;SDS011;41157;53.560;10.098;2023-07-13T10:05:51;2.90;;;1.50;;
55292;SDS011;41157;53.560;10.098;2023-07-13T10:08:21;7.80;;;2.30;;
55292;SDS011;41157;53.560;10.098;2023-07-13T10:10:53;5.47;;;2.20;;
55292;SDS011;41157;53.560;10.098;2023-07-13T10:13:27;5.30;;;1.80;;
55292;SDS011;41157;53.560;10.098;2023-07-13T10:15:56;4.20;;;1.70;;
55292;SDS011;41157;53.560;10.098;2023-07-13T10:18:24;5.47;;;2.13;;
55292;SDS011;41157;53.560;10.098;2023-07-13T10:20:53;3.65;;;1.50;;
55292;SDS011;41157;53.560;10.098;2023-07-13T10:23:21;4.97;;;2.28;;
55292;SDS011;41157;53.560;10.098;2023-07-13T10:25:50;4.10;;;1.95;;
55292;SDS011;41157;53.560;10.098;2023-07-13T10:28:23;5.63;;;2.08;;
55292;SDS011;41157;53.560;10.098;2023-07-13T10:30:52;5.13;;;1.75;;
55292;SDS011;41157;53.560;10.098;2023-07-13T10:33:20;33.38;;;2.97;;
55292;SDS011;41157;53.560;10.098;2023-07-13T10:35:48;5.22;;;1.67;;
55292;SDS011;41157;53.560;10.098;2023-07-13T10:38:19;4.43;;;1.80;;
55292;SDS011;41157;53.560;10.098;2023-07-13T10:40:50;5.03;;;1.90;;
55292;SDS011;41157;53.560;10.098;2023-07-13T10:43:23;2.90;;;1.63;;
55292;SDS011;41157;53.560;10.098;2023-07-13T10:45:52;6.13;;;2.03;;
55292;SDS011;41157;53.560;10.098;2023-07-13T10:48:20;5.50;;;1.90;;
55292;SDS011;41157;53.560;10.098;2023-07-13T10:50:49;5.85;;;1.77;;
55292;SDS011;41157;53.560;10.098;2023-07-13T10:53:18;7.03;;;1.77;;
55292;SDS011;41157;53.560;10.098;2023-07-13T10:55:56;7.90;;;2.25;;
55292;SDS011;41157;53.560;10.098;2023-07-13T10:58:31;8.18;;;1.88;;
55292;SDS011;41157;53.560;10.098;2023-07-13T11:01:01;9.27;;;2.03;;
55292;SDS011;41157;53.560;10.098;2023-07-13T11:03:29;3.10;;;1.77;;
55292;SDS011;41157;53.560;10.098;2023-07-13T11:06:05;4.72;;;1.95;;
55292;SDS011;41157;53.560;10.098;2023-07-13T11:08:36;3.15;;;1.35;;
55292;SDS011;41157;53.560;10.098;2023-07-13T11:11:04;6.85;;;2.40;;
55292;SDS011;41157;53.560;10.098;2023-07-13T11:13:59;5.60;;;1.58;;
55292;SDS011;41157;53.560;10.098;2023-07-13T11:16:34;3.70;;;1.42;;
55292;SDS011;41157;53.560;10.098;2023-07-13T11:22:01;4.05;;;1.55;;
55292;SDS011;41157;53.560;10.098;2023-07-13T11:24:29;5.53;;;1.45;;
55292;SDS011;41157;53.560;10.098;2023-07-13T11:26:56;5.88;;;1.67;;
55292;SDS011;41157;53.560;10.098;2023-07-13T11:29:27;3.63;;;1.73;;
55292;SDS011;41157;53.560;10.098;2023-07-13T11:32:00;3.22;;;1.52;;
55292;SDS011;41157;53.560;10.098;2023-07-13T11:34:28;3.22;;;1.50;;
55292;SDS011;41157;53.560;10.098;2023-07-13T11:36:56;6.28;;;1.65;;
55292;SDS011;41157;53.560;10.098;2023-07-13T11:39:29;2.72;;;1.45;;
55292;SDS011;41157;53.560;10.098;2023-07-13T11:41:57;7.15;;;1.35;;
55292;SDS011;41157;53.560;10.098;2023-07-13T11:44:27;4.05;;;1.52;;
55292;SDS011;41157;53.560;10.098;2023-07-13T11:46:55;4.95;;;1.73;;
55292;SDS011;41157;53.560;10.098;2023-07-13T11:49:25;2.67;;;1.50;;
55292;SDS011;41157;53.560;10.098;2023-07-13T11:51:53;2.45;;;1.30;;
55292;SDS011;41157;53.560;10.098;2023-07-13T11:54:22;2.67;;;1.40;;
55292;SDS011;41157;53.560;10.098;2023-07-13T11:56:51;5.57;;;1.42;;
55292;SDS011;41157;53.560;10.098;2023-07-13T11:59:18;3.90;;;1.63;;
55292;SDS011;41157;53.560;10.098;2023-07-13T12:01:48;3.90;;;1.30;;
55292;SDS011;41157;53.560;10.098;2023-07-13T12:04:19;3.78;;;1.60;;
55292;SDS011;41157;53.560;10.098;2023-07-13T12:06:47;5.13;;;1.30;;
55292;SDS011;41157;53.560;10.098;2023-07-13T12:09:19;3.22;;;1.50;;
55292;SDS011;41157;53.560;10.098;2023-07-13T12:11:50;6.38;;;1.63;;
55292;SDS011;41157;53.560;10.098;2023-07-13T12:14:18;6.22;;;1.40;;
55292;SDS011;41157;53.560;10.098;2023-07-13T12:16:45;6.22;;;1.58;;
55292;SDS011;41157;53.560;10.098;2023-07-13T12:19:16;1.88;;;1.35;;
55292;SDS011;41157;53.560;10.098;2023-07-13T12:21:44;3.30;;;1.48;;
55292;SDS011;41157;53.560;10.098;2023-07-13T12:24:13;3.05;;;1.80;;
55292;SDS011;41157;53.560;10.098;2023-07-13T12:26:41;5.18;;;2.25;;
55292;SDS011;41157;53.560;10.098;2023-07-13T12:29:08;9.95;;;2.30;;
55292;SDS011;41157;53.560;10.098;2023-07-13T12:31:36;15.60;;;3.22;;
55292;SDS011;41157;53.560;10.098;2023-07-13T12:34:06;8.18;;;2.70;;
55292;SDS011;41157;53.560;10.098;2023-07-13T12:36:35;11.27;;;2.70;;
55292;SDS011;41157;53.560;10.098;2023-07-13T12:39:13;9.23;;;2.53;;
55292;SDS011;41157;53.560;10.098;2023-07-13T12:41:41;4.88;;;2.08;;
55292;SDS011;41157;53.560;10.098;2023-07-13T12:44:11;5.25;;;1.90;;
55292;SDS011;41157;53.560;10.098;2023-07-13T12:46:38;4.35;;;1.58;;
55292;SDS011;41157;53.560;10.098;2023-07-13T12:49:06;3.95;;;1.70;;
55292;SDS011;41157;53.560;10.098;2023-07-13T12:51:35;3.15;;;1.60;;
55292;SDS011;41157;53.560;10.098;2023-07-13T12:54:12;3.78;;;1.77;;
55292;SDS011;41157;53.560;10.098;2023-07-13T12:56:40;3.83;;;1.70;;
55292;SDS011;41157;53.560;10.098;2023-07-13T12:59:08;3.78;;;1.70;;
55292;SDS011;41157;53.560;10.098;2023-07-13T13:01:38;4.72;;;1.17;;
55292;SDS011;41157;53.560;10.098;2023-07-13T13:04:05;6.00;;;1.70;;
55292;SDS011;41157;53.560;10.098;2023-07-13T13:06:35;2.33;;;1.42;;
55292;SDS011;41157;53.560;10.098;2023-07-13T13:09:02;3.25;;;1.85;;
55292;SDS011;41157;53.560;10.098;2023-07-13T13:11:30;9.63;;;1.92;;
55292;SDS011;41157;53.560;10.098;2023-07-13T13:13:57;4.25;;;1.92;;
55292;SDS011;41157;53.560;10.098;2023-07-13T13:16:29;4.07;;;1.90;;
55292;SDS011;41157;53.560;10.098;2023-07-13T13:18:59;2.35;;;1.65;;
55292;SDS011;41157;53.560;10.098;2023-07-13T13:21:27;3.72;;;1.52;;
55292;SDS011;41157;53.560;10.098;2023-07-13T13:23:55;2.90;;;1.70;;
55292;SDS011;41157;53.560;10.098;2023-07-13T13:26:23;3.95;;;1.55;;
55292;SDS011;41157;53.560;10.098;2023-07-13T13:28:51;7.65;;;1.95;;
55292;SDS011;41157;53.560;10.098;2023-07-13T13:31:18;2.63;;;1.63;;
55292;SDS011;41157;53.560;10.098;2023-07-13T13:33:45;2.50;;;1.20;;
55292;SDS011;41157;53.560;10.098;2023-07-13T13:36:14;3.08;;;1.70;;
55292;SDS011;41157;53.560;10.098;2023-07-13T13:38:42;3.30;;;1.75;;
55292;SDS011;41157;53.560;10.098;2023-07-13T13:41:11;2.92;;;1.90;;
55292;SDS011;41157;53.560;10.098;2023-07-13T13:43:38;3.13;;;1.80;;
55292;SDS011;41157;53.560;10.098;2023-07-13T13:46:09;5.75;;;1.50;;
55292;SDS011;41157;53.560;10.098;2023-07-13T13:48:38;3.75;;;1.73;;
55292;SDS011;41157;53.560;10.098;2023-07-13T13:51:13;7.63;;;1.60;;
55292;SDS011;41157;53.560;10.098;2023-07-13T13:53:40;3.40;;;1.40;;
55292;SDS011;41157;53.560;10.098;2023-07-13T13:56:07;3.40;;;1.58;;
55292;SDS011;41157;53.560;10.098;2023-07-13T13:58:36;1.90;;;1.40;;
55292;SDS011;41157;53.560;10.098;2023-07-13T14:01:03;5.35;;;1.80;;
55292;SDS011;41157;53.560;10.098;2023-07-13T14:03:33;3.88;;;1.50;;
55292;SDS011;41157;53.560;10.098;2023-07-13T14:06:00;2.90;;;1.65;;
55292;SDS011;41157;53.560;10.098;2023-07-13T14:08:27;3.80;;;1.75;;
55292;SDS011;41157;53.560;10.098;2023-07-13T14:10:55;2.83;;;1.70;;
55292;SDS011;41157;53.560;10.098;2023-07-13T14:13:25;2.35;;;1.80;;
55292;SDS011;41157;53.560;10.098;2023-07-13T14:15:54;2.45;;;1.35;;
55292;SDS011;41157;53.560;10.098;2023-07-13T14:18:21;3.42;;;1.70;;
55292;SDS011;41157;53.560;10.098;2023-07-13T14:20:49;2.75;;;1.70;;
55292;SDS011;41157;53.560;10.098;2023-07-13T14:23:17;13.65;;;1.95;;
55292;SDS011;41157;53.560;10.098;2023-07-13T14:25:44;3.78;;;1.80;;
55292;SDS011;41157;53.560;10.098;2023-07-13T14:28:16;3.92;;;1.80;;
55292;SDS011;41157;53.560;10.098;2023-07-13T14:30:45;1.48;;;1.30;;
55292;SDS011;41157;53.560;10.098;2023-07-13T14:33:13;1.70;;;1.52;;
55292;SDS011;41157;53.560;10.098;2023-07-13T14:35:40;4.47;;;1.70;;
55292;SDS011;41157;53.560;10.098;2023-07-13T14:38:09;3.58;;;1.40;;
55292;SDS011;41157;53.560;10.098;2023-07-13T14:40:36;5.70;;;1.70;;
55292;SDS011;41157;53.560;10.098;2023-07-13T14:43:04;10.27;;;1.85;;
55292;SDS011;41157;53.560;10.098;2023-07-13T14:45:33;2.08;;;1.60;;